sensor_id;sensor_type;location;lat;lon;timestamp;pressure;altitude;pressure_sealevel;temperature;humidity
77778;BME280;66966;-34.746;138.604;2023-05-16T00:01:33;102565.68;;;15.07;44.09
77778;BME280;66966;-34.746;138.604;2023-05-16T00:03:58;102569.43;;;15.16;44.36
77778;BME280;66966;-34.746;138.604;2023-05-16T00:06:23;102566.39;;;15.06;44.08
77778;BME280;66966;-34.746;138.604;2023-05-16T00:08:48;102569.22;;;15.15;43.84
77778;BME280;66966;-34.746;138.604;2023-05-16T00:11:15;102567.33;;;15.22;43.52
77778;BME280;66966;-34.746;138.604;2023-05-16T00:13:39;102574.52;;;15.36;43.39
77778;BME280;66966;-34.746;138.604;2023-05-16T00:16:05;102574.32;;;15.44;43.99
77778;BME280;66966;-34.746;138.604;2023-05-16T00:18:30;102578.54;;;15.66;44.25
77778;BME280;66966;-34.746;138.604;2023-05-16T00:20:56;102574.97;;;15.81;43.90
77778;BME280;66966;-34.746;138.604;2023-05-16T00:23:21;102578.35;;;15.98;43.70
77778;BME280;66966;-34.746;138.604;2023-05-16T00:25:48;102574.91;;;16.07;43.49
77778;BME280;66966;-34.746;138.604;2023-05-16T00:28:12;102574.69;;;16.22;43.36
77778;BME280;66966;-34.746;138.604;2023-05-16T00:30:38;102578.43;;;16.12;43.14
77778;BME280;66966;-34.746;138.604;2023-05-16T00:33:04;102578.74;;;16.47;43.18
77778;BME280;66966;-34.746;138.604;2023-05-16T00:35:29;102578.89;;;16.22;42.91
77778;BME280;66966;-34.746;138.604;2023-05-16T00:37:55;102576.20;;;16.71;42.19
77778;BME280;66966;-34.746;138.604;2023-05-16T00:40:20;102576.16;;;16.83;42.17
77778;BME280;66966;-34.746;138.604;2023-05-16T00:42:46;102576.87;;;16.73;42.34
77778;BME280;66966;-34.746;138.604;2023-05-16T00:45:12;102574.44;;;16.85;42.15
77778;BME280;66966;-34.746;138.604;2023-05-16T00:47:37;102576.44;;;16.70;42.05
77778;BME280;66966;-34.746;138.604;2023-05-16T00:50:03;102573.25;;;16.74;42.12
77778;BME280;66966;-34.746;138.604;2023-05-16T00:52:29;102574.28;;;16.78;42.13
77778;BME280;66966;-34.746;138.604;2023-05-16T00:54:54;102572.58;;;16.92;42.34
77778;BME280;66966;-34.746;138.604;2023-05-16T00:57:20;102571.84;;;17.24;41.91
77778;BME280;66966;-34.746;138.604;2023-05-16T00:59:46;102571.39;;;16.82;41.61
77778;BME280;66966;-34.746;138.604;2023-05-16T01:02:11;102570.04;;;17.35;41.52
77778;BME280;66966;-34.746;138.604;2023-05-16T01:04:37;102566.50;;;16.98;41.20
77778;BME280;66966;-34.746;138.604;2023-05-16T01:07:02;102561.73;;;16.98;41.42
77778;BME280;66966;-34.746;138.604;2023-05-16T01:09:27;102559.26;;;17.58;41.20
77778;BME280;66966;-34.746;138.604;2023-05-16T01:12:00;102561.52;;;17.54;41.25
77778;BME280;66966;-34.746;138.604;2023-05-16T01:14:23;102555.73;;;17.69;41.20
77778;BME280;66966;-34.746;138.604;2023-05-16T01:16:49;102556.30;;;17.62;40.84
77778;BME280;66966;-34.746;138.604;2023-05-16T01:19:18;102556.20;;;17.73;40.51
77778;BME280;66966;-34.746;138.604;2023-05-16T01:21:43;102553.50;;;17.67;41.05
77778;BME280;66966;-34.746;138.604;2023-05-16T01:24:07;102552.70;;;18.06;40.45
77778;BME280;66966;-34.746;138.604;2023-05-16T01:26:27;102554.14;;;18.28;40.31
77778;BME280;66966;-34.746;138.604;2023-05-16T01:28:52;102550.24;;;18.30;39.86
77778;BME280;66966;-34.746;138.604;2023-05-16T01:31:17;102547.27;;;18.17;39.79
77778;BME280;66966;-34.746;138.604;2023-05-16T01:33:42;102544.49;;;18.56;39.45
77778;BME280;66966;-34.746;138.604;2023-05-16T01:36:15;102551.74;;;18.32;39.43
77778;BME280;66966;-34.746;138.604;2023-05-16T01:38:38;102550.28;;;18.56;39.53
77778;BME280;66966;-34.746;138.604;2023-05-16T01:41:01;102549.33;;;18.33;39.60
77778;BME280;66966;-34.746;138.604;2023-05-16T01:43:29;102548.28;;;18.38;39.65
77778;BME280;66966;-34.746;138.604;2023-05-16T01:45:54;102548.91;;;18.56;39.73
77778;BME280;66966;-34.746;138.604;2023-05-16T01:48:19;102547.26;;;18.60;39.78
77778;BME280;66966;-34.746;138.604;2023-05-16T01:50:45;102547.55;;;18.61;39.95
77778;BME280;66966;-34.746;138.604;2023-05-16T01:53:08;102543.36;;;18.16;39.72
77778;BME280;66966;-34.746;138.604;2023-05-16T01:55:38;102544.95;;;18.17;39.83
77778;BME280;66966;-34.746;138.604;2023-05-16T01:57:58;102545.30;;;18.62;39.81
77778;BME280;66966;-34.746;138.604;2023-05-16T02:00:23;102545.32;;;18.70;39.32
77778;BME280;66966;-34.746;138.604;2023-05-16T02:02:48;102547.57;;;18.46;39.25
77778;BME280;66966;-34.746;138.604;2023-05-16T02:05:13;102547.59;;;18.84;39.60
77778;BME280;66966;-34.746;138.604;2023-05-16T02:07:39;102546.90;;;18.59;40.21
77778;BME280;66966;-34.746;138.604;2023-05-16T02:10:05;102540.53;;;18.45;40.64
77778;BME280;66966;-34.746;138.604;2023-05-16T02:12:30;102538.33;;;18.32;40.96
77778;BME280;66966;-34.746;138.604;2023-05-16T02:14:55;102534.84;;;18.31;41.33
77778;BME280;66966;-34.746;138.604;2023-05-16T02:17:21;102531.97;;;18.37;41.47
77778;BME280;66966;-34.746;138.604;2023-05-16T02:19:46;102529.15;;;18.79;41.65
77778;BME280;66966;-34.746;138.604;2023-05-16T02:22:11;102526.75;;;18.84;40.83
77778;BME280;66966;-34.746;138.604;2023-05-16T02:24:37;102524.15;;;18.55;41.12
77778;BME280;66966;-34.746;138.604;2023-05-16T02:27:03;102523.36;;;18.81;41.27
77778;BME280;66966;-34.746;138.604;2023-05-16T02:29:28;102518.21;;;18.70;40.82
77778;BME280;66966;-34.746;138.604;2023-05-16T02:31:53;102513.34;;;18.53;40.02
77778;BME280;66966;-34.746;138.604;2023-05-16T02:34:19;102506.87;;;18.79;39.53
77778;BME280;66966;-34.746;138.604;2023-05-16T02:36:44;102504.80;;;18.85;39.39
77778;BME280;66966;-34.746;138.604;2023-05-16T02:39:10;102501.97;;;18.84;39.96
77778;BME280;66966;-34.746;138.604;2023-05-16T02:41:36;102497.28;;;18.96;39.91
77778;BME280;66966;-34.746;138.604;2023-05-16T02:44:01;102494.21;;;19.09;39.90
77778;BME280;66966;-34.746;138.604;2023-05-16T02:46:28;102492.51;;;19.02;38.90
77778;BME280;66966;-34.746;138.604;2023-05-16T02:48:52;102491.34;;;19.19;39.07
77778;BME280;66966;-34.746;138.604;2023-05-16T02:51:18;102490.33;;;19.44;38.93
77778;BME280;66966;-34.746;138.604;2023-05-16T02:53:43;102487.26;;;19.59;38.94
77778;BME280;66966;-34.746;138.604;2023-05-16T02:56:08;102483.20;;;19.54;38.44
77778;BME280;66966;-34.746;138.604;2023-05-16T02:58:33;102481.65;;;19.34;37.99
77778;BME280;66966;-34.746;138.604;2023-05-16T03:00:59;102478.88;;;19.63;38.34
77778;BME280;66966;-34.746;138.604;2023-05-16T03:03:25;102477.77;;;19.79;38.32
77778;BME280;66966;-34.746;138.604;2023-05-16T03:05:50;102477.12;;;20.55;37.44
77778;BME280;66966;-34.746;138.604;2023-05-16T03:08:15;102471.95;;;20.02;36.98
77778;BME280;66966;-34.746;138.604;2023-05-16T03:10:41;102473.16;;;20.00;36.88
77778;BME280;66966;-34.746;138.604;2023-05-16T03:13:06;102470.74;;;19.93;37.36
77778;BME280;66966;-34.746;138.604;2023-05-16T03:15:32;102471.71;;;20.01;38.15
77778;BME280;66966;-34.746;138.604;2023-05-16T03:17:57;102470.70;;;19.75;39.51
77778;BME280;66966;-34.746;138.604;2023-05-16T03:20:22;102467.43;;;19.73;41.06
77778;BME280;66966;-34.746;138.604;2023-05-16T03:22:48;102466.94;;;19.42;41.61
77778;BME280;66966;-34.746;138.604;2023-05-16T03:25:13;102467.34;;;19.13;42.22
77778;BME280;66966;-34.746;138.604;2023-05-16T03:27:39;102469.69;;;18.93;42.70
77778;BME280;66966;-34.746;138.604;2023-05-16T03:30:05;102467.04;;;18.89;43.21
77778;BME280;66966;-34.746;138.604;2023-05-16T03:32:30;102469.90;;;18.84;43.13
77778;BME280;66966;-34.746;138.604;2023-05-16T03:34:55;102470.41;;;19.00;43.39
77778;BME280;66966;-34.746;138.604;2023-05-16T03:37:21;102473.48;;;19.10;43.52
77778;BME280;66966;-34.746;138.604;2023-05-16T03:39:46;102472.82;;;18.75;43.72
77778;BME280;66966;-34.746;138.604;2023-05-16T03:42:12;102478.81;;;18.73;43.89
77778;BME280;66966;-34.746;138.604;2023-05-16T03:44:37;102481.87;;;18.44;44.33
77778;BME280;66966;-34.746;138.604;2023-05-16T03:47:03;102478.65;;;18.65;44.33
77778;BME280;66966;-34.746;138.604;2023-05-16T03:49:28;102479.23;;;18.85;44.20
77778;BME280;66966;-34.746;138.604;2023-05-16T03:51:54;102478.51;;;18.36;44.31
77778;BME280;66966;-34.746;138.604;2023-05-16T03:54:19;102477.53;;;18.51;44.39
77778;BME280;66966;-34.746;138.604;2023-05-16T03:56:44;102478.53;;;18.37;44.35
77778;BME280;66966;-34.746;138.604;2023-05-16T03:59:10;102477.05;;;18.59;44.34
77778;BME280;66966;-34.746;138.604;2023-05-16T04:01:35;102479.29;;;18.50;44.82
77778;BME280;66966;-34.746;138.604;2023-05-16T04:04:01;102480.54;;;18.56;44.66
77778;BME280;66966;-34.746;138.604;2023-05-16T04:06:26;102479.23;;;17.99;44.30
77778;BME280;66966;-34.746;138.604;2023-05-16T04:08:52;102477.27;;;18.20;44.07
77778;BME280;66966;-34.746;138.604;2023-05-16T04:11:18;102478.14;;;18.15;44.36
77778;BME280;66966;-34.746;138.604;2023-05-16T04:13:43;102477.63;;;18.29;44.73
77778;BME280;66966;-34.746;138.604;2023-05-16T04:16:09;102477.73;;;18.52;44.84
77778;BME280;66966;-34.746;138.604;2023-05-16T04:18:34;102475.27;;;18.01;45.22
77778;BME280;66966;-34.746;138.604;2023-05-16T04:21:00;102476.78;;;18.18;45.55
77778;BME280;66966;-34.746;138.604;2023-05-16T04:23:25;102479.75;;;18.22;45.54
77778;BME280;66966;-34.746;138.604;2023-05-16T04:25:51;102479.69;;;18.09;45.31
77778;BME280;66966;-34.746;138.604;2023-05-16T04:28:16;102479.12;;;18.32;44.95
77778;BME280;66966;-34.746;138.604;2023-05-16T04:30:42;102476.93;;;18.14;45.06
77778;BME280;66966;-34.746;138.604;2023-05-16T04:33:07;102477.67;;;18.20;44.92
77778;BME280;66966;-34.746;138.604;2023-05-16T04:35:33;102476.75;;;18.34;44.58
77778;BME280;66966;-34.746;138.604;2023-05-16T04:37:58;102476.37;;;18.70;44.44
77778;BME280;66966;-34.746;138.604;2023-05-16T04:40:24;102475.41;;;18.63;44.34
77778;BME280;66966;-34.746;138.604;2023-05-16T04:42:49;102477.10;;;18.97;44.27
77778;BME280;66966;-34.746;138.604;2023-05-16T04:45:15;102478.68;;;18.77;43.47
77778;BME280;66966;-34.746;138.604;2023-05-16T04:47:41;102477.44;;;18.84;43.84
77778;BME280;66966;-34.746;138.604;2023-05-16T04:50:07;102475.14;;;18.97;43.34
77778;BME280;66966;-34.746;138.604;2023-05-16T04:52:31;102479.36;;;18.65;42.03
77778;BME280;66966;-34.746;138.604;2023-05-16T04:54:57;102476.65;;;18.69;41.74
77778;BME280;66966;-34.746;138.604;2023-05-16T04:57:22;102475.71;;;18.65;41.21
77778;BME280;66966;-34.746;138.604;2023-05-16T04:59:48;102480.74;;;18.89;41.62
77778;BME280;66966;-34.746;138.604;2023-05-16T05:02:13;102481.29;;;18.74;41.36
77778;BME280;66966;-34.746;138.604;2023-05-16T05:04:39;102482.19;;;18.72;40.17
77778;BME280;66966;-34.746;138.604;2023-05-16T05:07:04;102478.61;;;18.69;40.05
77778;BME280;66966;-34.746;138.604;2023-05-16T05:09:30;102477.51;;;18.71;40.10
77778;BME280;66966;-34.746;138.604;2023-05-16T05:11:55;102479.92;;;18.68;39.90
77778;BME280;66966;-34.746;138.604;2023-05-16T05:14:21;102483.57;;;18.68;39.86
77778;BME280;66966;-34.746;138.604;2023-05-16T05:16:46;102487.55;;;19.03;39.36
77778;BME280;66966;-34.746;138.604;2023-05-16T05:19:11;102489.20;;;18.70;39.61
77778;BME280;66966;-34.746;138.604;2023-05-16T05:21:37;102491.45;;;18.37;39.71
77778;BME280;66966;-34.746;138.604;2023-05-16T05:24:03;102494.74;;;18.77;39.95
77778;BME280;66966;-34.746;138.604;2023-05-16T05:26:28;102499.06;;;18.46;40.30
77778;BME280;66966;-34.746;138.604;2023-05-16T05:28:54;102495.29;;;18.32;40.73
77778;BME280;66966;-34.746;138.604;2023-05-16T05:31:19;102496.40;;;18.29;40.73
77778;BME280;66966;-34.746;138.604;2023-05-16T05:33:44;102494.29;;;18.46;41.11
77778;BME280;66966;-34.746;138.604;2023-05-16T05:36:10;102493.03;;;18.20;41.19
77778;BME280;66966;-34.746;138.604;2023-05-16T05:38:35;102490.85;;;18.48;41.40
77778;BME280;66966;-34.746;138.604;2023-05-16T05:41:01;102488.36;;;18.28;41.28
77778;BME280;66966;-34.746;138.604;2023-05-16T05:43:27;102488.63;;;18.51;41.02
77778;BME280;66966;-34.746;138.604;2023-05-16T05:45:52;102486.81;;;18.53;40.82
77778;BME280;66966;-34.746;138.604;2023-05-16T05:48:18;102486.45;;;18.50;40.63
77778;BME280;66966;-34.746;138.604;2023-05-16T05:50:43;102488.39;;;18.50;40.56
77778;BME280;66966;-34.746;138.604;2023-05-16T05:53:09;102490.58;;;18.03;40.36
77778;BME280;66966;-34.746;138.604;2023-05-16T05:55:34;102491.34;;;18.52;40.36
77778;BME280;66966;-34.746;138.604;2023-05-16T05:58:00;102493.17;;;18.50;40.55
77778;BME280;66966;-34.746;138.604;2023-05-16T06:00:25;102497.12;;;18.68;40.50
77778;BME280;66966;-34.746;138.604;2023-05-16T06:02:51;102498.56;;;18.81;40.44
77778;BME280;66966;-34.746;138.604;2023-05-16T06:05:16;102500.87;;;18.61;39.65
77778;BME280;66966;-34.746;138.604;2023-05-16T06:07:42;102499.82;;;18.85;39.33
77778;BME280;66966;-34.746;138.604;2023-05-16T06:10:08;102497.63;;;18.85;39.26
77778;BME280;66966;-34.746;138.604;2023-05-16T06:12:33;102501.09;;;18.83;39.06
77778;BME280;66966;-34.746;138.604;2023-05-16T06:14:58;102503.80;;;18.57;38.91
77778;BME280;66966;-34.746;138.604;2023-05-16T06:17:24;102507.55;;;18.57;38.96
77778;BME280;66966;-34.746;138.604;2023-05-16T06:19:49;102512.06;;;18.58;38.96
77778;BME280;66966;-34.746;138.604;2023-05-16T06:22:15;102516.51;;;18.56;39.01
77778;BME280;66966;-34.746;138.604;2023-05-16T06:24:40;102518.77;;;18.55;38.86
77778;BME280;66966;-34.746;138.604;2023-05-16T06:27:06;102518.58;;;18.55;38.77
77778;BME280;66966;-34.746;138.604;2023-05-16T06:29:31;102520.71;;;18.53;38.73
77778;BME280;66966;-34.746;138.604;2023-05-16T06:31:57;102524.37;;;18.42;38.30
77778;BME280;66966;-34.746;138.604;2023-05-16T06:34:22;102527.26;;;18.34;38.38
77778;BME280;66966;-34.746;138.604;2023-05-16T06:36:47;102530.13;;;18.75;38.31
77778;BME280;66966;-34.746;138.604;2023-05-16T06:39:13;102532.67;;;18.40;38.25
77778;BME280;66966;-34.746;138.604;2023-05-16T06:41:38;102538.26;;;18.32;38.52
77778;BME280;66966;-34.746;138.604;2023-05-16T06:44:04;102544.22;;;18.38;38.60
77778;BME280;66966;-34.746;138.604;2023-05-16T06:46:30;102552.28;;;18.01;38.99
77778;BME280;66966;-34.746;138.604;2023-05-16T06:48:55;102554.15;;;18.12;39.54
77778;BME280;66966;-34.746;138.604;2023-05-16T06:51:21;102556.58;;;18.03;39.74
77778;BME280;66966;-34.746;138.604;2023-05-16T06:53:46;102559.13;;;17.97;39.88
77778;BME280;66966;-34.746;138.604;2023-05-16T06:56:12;102561.85;;;17.92;39.78
77778;BME280;66966;-34.746;138.604;2023-05-16T06:58:37;102565.27;;;17.83;39.77
77778;BME280;66966;-34.746;138.604;2023-05-16T07:01:03;102565.95;;;17.78;40.00
77778;BME280;66966;-34.746;138.604;2023-05-16T07:03:29;102569.57;;;17.79;40.06
77778;BME280;66966;-34.746;138.604;2023-05-16T07:05:54;102569.20;;;17.82;39.83
77778;BME280;66966;-34.746;138.604;2023-05-16T07:08:20;102570.91;;;17.76;39.91
77778;BME280;66966;-34.746;138.604;2023-05-16T07:10:45;102577.07;;;17.51;39.99
77778;BME280;66966;-34.746;138.604;2023-05-16T07:13:10;102578.15;;;17.73;40.17
77778;BME280;66966;-34.746;138.604;2023-05-16T07:15:36;102580.45;;;17.45;40.08
77778;BME280;66966;-34.746;138.604;2023-05-16T07:18:01;102584.24;;;17.44;39.96
77778;BME280;66966;-34.746;138.604;2023-05-16T07:20:27;102584.98;;;17.65;39.85
77778;BME280;66966;-34.746;138.604;2023-05-16T07:22:52;102584.73;;;17.62;39.94
77778;BME280;66966;-34.746;138.604;2023-05-16T07:25:18;102587.43;;;17.58;39.71
77778;BME280;66966;-34.746;138.604;2023-05-16T07:27:43;102590.93;;;17.58;39.59
77778;BME280;66966;-34.746;138.604;2023-05-16T07:30:10;102592.52;;;17.56;39.57
77778;BME280;66966;-34.746;138.604;2023-05-16T07:32:35;102594.73;;;17.77;39.56
77778;BME280;66966;-34.746;138.604;2023-05-16T07:35:00;102600.75;;;17.51;39.60
77778;BME280;66966;-34.746;138.604;2023-05-16T07:37:26;102602.24;;;17.51;39.53
77778;BME280;66966;-34.746;138.604;2023-05-16T07:39:51;102607.67;;;17.48;39.53
77778;BME280;66966;-34.746;138.604;2023-05-16T07:42:17;102610.73;;;17.73;39.60
77778;BME280;66966;-34.746;138.604;2023-05-16T07:44:43;102613.14;;;17.70;39.49
77778;BME280;66966;-34.746;138.604;2023-05-16T07:47:08;102612.13;;;17.45;39.20
77778;BME280;66966;-34.746;138.604;2023-05-16T07:49:33;102615.31;;;17.38;39.17
77778;BME280;66966;-34.746;138.604;2023-05-16T07:51:59;102619.51;;;17.37;39.20
77778;BME280;66966;-34.746;138.604;2023-05-16T07:54:24;102623.44;;;17.61;39.20
77778;BME280;66966;-34.746;138.604;2023-05-16T07:56:50;102624.60;;;17.35;39.23
77778;BME280;66966;-34.746;138.604;2023-05-16T07:59:15;102627.74;;;17.34;39.21
77778;BME280;66966;-34.746;138.604;2023-05-16T08:01:41;102633.28;;;17.28;39.19
77778;BME280;66966;-34.746;138.604;2023-05-16T08:04:06;102636.10;;;17.75;39.25
77778;BME280;66966;-34.746;138.604;2023-05-16T08:06:32;102638.67;;;17.22;39.41
77778;BME280;66966;-34.746;138.604;2023-05-16T08:08:58;102640.87;;;17.16;39.38
77778;BME280;66966;-34.746;138.604;2023-05-16T08:11:23;102644.37;;;17.64;39.32
77778;BME280;66966;-34.746;138.604;2023-05-16T08:13:49;102645.28;;;17.15;39.19
77778;BME280;66966;-34.746;138.604;2023-05-16T08:16:14;102648.73;;;17.37;39.19
77778;BME280;66966;-34.746;138.604;2023-05-16T08:18:40;102651.65;;;17.32;39.27
77778;BME280;66966;-34.746;138.604;2023-05-16T08:21:06;102653.78;;;17.06;39.26
77778;BME280;66966;-34.746;138.604;2023-05-16T08:23:31;102659.15;;;17.50;39.09
77778;BME280;66966;-34.746;138.604;2023-05-16T08:25:56;102664.36;;;17.45;38.92
77778;BME280;66966;-34.746;138.604;2023-05-16T08:28:22;102665.46;;;17.14;38.72
77778;BME280;66966;-34.746;138.604;2023-05-16T08:30:48;102671.74;;;17.34;38.70
77778;BME280;66966;-34.746;138.604;2023-05-16T08:33:13;102674.71;;;17.06;38.58
77778;BME280;66966;-34.746;138.604;2023-05-16T08:35:42;102676.41;;;17.03;38.47
77778;BME280;66966;-34.746;138.604;2023-05-16T08:38:04;102678.21;;;17.01;38.64
77778;BME280;66966;-34.746;138.604;2023-05-16T08:40:30;102682.52;;;16.96;38.62
77778;BME280;66966;-34.746;138.604;2023-05-16T08:42:56;102684.78;;;17.18;38.73
77778;BME280;66966;-34.746;138.604;2023-05-16T08:45:22;102686.78;;;17.15;38.62
77778;BME280;66966;-34.746;138.604;2023-05-16T08:47:49;102686.79;;;17.15;38.76
77778;BME280;66966;-34.746;138.604;2023-05-16T08:52:38;102696.78;;;16.92;38.86
77778;BME280;66966;-34.746;138.604;2023-05-16T08:55:04;102700.08;;;17.13;38.99
77778;BME280;66966;-34.746;138.604;2023-05-16T08:57:30;102706.76;;;16.79;38.99
77778;BME280;66966;-34.746;138.604;2023-05-16T08:59:55;102707.54;;;16.72;39.04
77778;BME280;66966;-34.746;138.604;2023-05-16T09:02:20;102710.36;;;16.90;39.17
77778;BME280;66966;-34.746;138.604;2023-05-16T09:04:46;102712.51;;;16.87;39.27
77778;BME280;66966;-34.746;138.604;2023-05-16T09:07:11;102713.02;;;16.84;39.36
77778;BME280;66966;-34.746;138.604;2023-05-16T09:09:37;102716.77;;;16.80;39.41
77778;BME280;66966;-34.746;138.604;2023-05-16T09:12:02;102717.68;;;16.55;39.24
77778;BME280;66966;-34.746;138.604;2023-05-16T09:14:28;102717.99;;;16.76;39.07
77778;BME280;66966;-34.746;138.604;2023-05-16T09:19:19;102720.39;;;16.68;38.83
77778;BME280;66966;-34.746;138.604;2023-05-16T09:21:45;102717.62;;;16.64;38.85
77778;BME280;66966;-34.746;138.604;2023-05-16T09:24:10;102718.92;;;16.65;38.92
77778;BME280;66966;-34.746;138.604;2023-05-16T09:26:37;102719.52;;;16.65;38.88
77778;BME280;66966;-34.746;138.604;2023-05-16T09:29:01;102721.30;;;16.59;38.91
77778;BME280;66966;-34.746;138.604;2023-05-16T09:31:28;102723.54;;;16.58;38.87
77778;BME280;66966;-34.746;138.604;2023-05-16T09:33:53;102727.06;;;17.04;38.85
77778;BME280;66966;-34.746;138.604;2023-05-16T09:36:18;102730.00;;;16.29;39.00
77778;BME280;66966;-34.746;138.604;2023-05-16T09:38:44;102732.41;;;16.51;38.97
77778;BME280;66966;-34.746;138.604;2023-05-16T09:41:10;102733.78;;;16.48;39.09
77778;BME280;66966;-34.746;138.604;2023-05-16T09:43:38;102732.06;;;16.73;38.96
77778;BME280;66966;-34.746;138.604;2023-05-16T09:46:01;102731.37;;;16.50;38.86
77778;BME280;66966;-34.746;138.604;2023-05-16T09:48:26;102736.12;;;16.75;38.84
77778;BME280;66966;-34.746;138.604;2023-05-16T09:50:54;102742.25;;;16.52;38.70
77778;BME280;66966;-34.746;138.604;2023-05-16T09:53:17;102746.20;;;16.51;38.72
77778;BME280;66966;-34.746;138.604;2023-05-16T09:55:43;102743.92;;;16.70;38.89
77778;BME280;66966;-34.746;138.604;2023-05-16T09:58:09;102746.25;;;16.43;39.01
77778;BME280;66966;-34.746;138.604;2023-05-16T10:00:34;102750.21;;;16.43;39.14
77778;BME280;66966;-34.746;138.604;2023-05-16T10:03:01;102755.62;;;16.43;39.32
77778;BME280;66966;-34.746;138.604;2023-05-16T10:05:26;102754.91;;;16.44;39.44
77778;BME280;66966;-34.746;138.604;2023-05-16T10:07:51;102756.77;;;16.44;39.45
77778;BME280;66966;-34.746;138.604;2023-05-16T10:10:17;102755.02;;;16.94;39.31
77778;BME280;66966;-34.746;138.604;2023-05-16T10:12:42;102754.88;;;16.44;39.16
77778;BME280;66966;-34.746;138.604;2023-05-16T10:15:09;102754.57;;;16.62;39.13
77778;BME280;66966;-34.746;138.604;2023-05-16T10:17:35;102759.10;;;15.67;38.78
77778;BME280;66966;-34.746;138.604;2023-05-16T10:20:00;102762.17;;;16.61;38.24
77778;BME280;66966;-34.746;138.604;2023-05-16T10:22:24;102766.54;;;16.48;38.17
77778;BME280;66966;-34.746;138.604;2023-05-16T10:24:56;102771.64;;;16.37;38.09
77778;BME280;66966;-34.746;138.604;2023-05-16T10:27:17;102775.26;;;16.79;37.96
77778;BME280;66966;-34.746;138.604;2023-05-16T10:29:42;102776.30;;;16.25;38.09
77778;BME280;66966;-34.746;138.604;2023-05-16T10:32:07;102775.19;;;16.43;38.14
77778;BME280;66966;-34.746;138.604;2023-05-16T10:34:32;102778.10;;;16.43;38.23
77778;BME280;66966;-34.746;138.604;2023-05-16T10:36:58;102774.85;;;16.17;38.34
77778;BME280;66966;-34.746;138.604;2023-05-16T10:39:24;102775.09;;;16.17;38.25
77778;BME280;66966;-34.746;138.604;2023-05-16T10:41:49;102774.18;;;16.15;38.09
77778;BME280;66966;-34.746;138.604;2023-05-16T10:44:15;102777.85;;;16.39;37.96
77778;BME280;66966;-34.746;138.604;2023-05-16T10:46:41;102780.70;;;16.34;37.93
77778;BME280;66966;-34.746;138.604;2023-05-16T10:51:36;102786.64;;;16.55;37.94
77778;BME280;66966;-34.746;138.604;2023-05-16T10:54:04;102789.26;;;16.25;38.11
77778;BME280;66966;-34.746;138.604;2023-05-16T10:56:24;102792.15;;;16.01;38.24
77778;BME280;66966;-34.746;138.604;2023-05-16T10:58:48;102797.41;;;16.06;38.18
77778;BME280;66966;-34.746;138.604;2023-05-16T11:01:21;102796.24;;;16.31;38.16
77778;BME280;66966;-34.746;138.604;2023-05-16T11:06:06;102796.14;;;16.31;38.13
77778;BME280;66966;-34.746;138.604;2023-05-16T11:08:31;102798.69;;;16.32;38.06
77778;BME280;66966;-34.746;138.604;2023-05-16T11:13:24;102801.50;;;16.27;37.87
77778;BME280;66966;-34.746;138.604;2023-05-16T11:15:47;102801.90;;;16.21;37.80
77778;BME280;66966;-34.746;138.604;2023-05-16T11:18:15;102804.43;;;15.94;37.76
77778;BME280;66966;-34.746;138.604;2023-05-16T11:20:39;102804.99;;;16.37;37.65
77778;BME280;66966;-34.746;138.604;2023-05-16T11:25:34;102799.94;;;16.27;37.69
77778;BME280;66966;-34.746;138.604;2023-05-16T11:27:55;102799.48;;;16.20;37.75
77778;BME280;66966;-34.746;138.604;2023-05-16T11:30:21;102797.06;;;16.15;37.80
77778;BME280;66966;-34.746;138.604;2023-05-16T11:32:47;102798.36;;;16.16;37.87
77778;BME280;66966;-34.746;138.604;2023-05-16T11:35:12;102799.43;;;16.16;37.67
77778;BME280;66966;-34.746;138.604;2023-05-16T11:37:37;102799.10;;;15.90;37.69
77778;BME280;66966;-34.746;138.604;2023-05-16T11:40:05;102798.32;;;16.10;37.56
77778;BME280;66966;-34.746;138.604;2023-05-16T11:42:30;102797.91;;;15.84;37.39
77778;BME280;66966;-34.746;138.604;2023-05-16T11:47:19;102804.29;;;16.04;37.47
77778;BME280;66966;-34.746;138.604;2023-05-16T11:49:44;102805.13;;;16.05;37.52
77778;BME280;66966;-34.746;138.604;2023-05-16T11:52:10;102803.50;;;16.04;37.25
77778;BME280;66966;-34.746;138.604;2023-05-16T11:54:35;102803.98;;;16.01;37.30
77778;BME280;66966;-34.746;138.604;2023-05-16T11:57:01;102802.20;;;15.77;37.40
77778;BME280;66966;-34.746;138.604;2023-05-16T11:59:26;102800.31;;;15.77;37.31
77778;BME280;66966;-34.746;138.604;2023-05-16T12:01:52;102801.17;;;15.98;37.32
77778;BME280;66966;-34.746;138.604;2023-05-16T12:04:18;102803.71;;;15.97;37.17
77778;BME280;66966;-34.746;138.604;2023-05-16T12:06:43;102804.17;;;15.92;37.14
77778;BME280;66966;-34.746;138.604;2023-05-16T12:09:12;102806.98;;;15.69;37.20
77778;BME280;66966;-34.746;138.604;2023-05-16T12:11:36;102806.96;;;15.95;37.00
77778;BME280;66966;-34.746;138.604;2023-05-16T12:14:00;102808.62;;;15.93;36.88
77778;BME280;66966;-34.746;138.604;2023-05-16T12:16:26;102809.49;;;15.92;36.87
77778;BME280;66966;-34.746;138.604;2023-05-16T12:18:51;102808.99;;;15.67;36.91
77778;BME280;66966;-34.746;138.604;2023-05-16T12:21:17;102810.24;;;15.92;36.90
77778;BME280;66966;-34.746;138.604;2023-05-16T12:23:43;102809.50;;;15.89;36.81
77778;BME280;66966;-34.746;138.604;2023-05-16T12:26:09;102807.17;;;15.86;36.72
77778;BME280;66966;-34.746;138.604;2023-05-16T12:28:34;102805.96;;;15.83;36.78